Time;durP1;ratioP1;P1;durP2;ratioP2;P2;SDS_P1;SDS_P2;PMS_P1;PMS_P2;Temp;Humidity;BMP_temperature;BMP_pressure;BME280_temperature;BME280_humidity;BME280_pressure;Samples;Min_cycle;Max_cycle;Signal;HPM_P1;HPM_P2
2022/03/21 00:00:55;;;;;;;49.53;30.10;;;6.70;55.20;;;;;;5036519;28;20238;-92
2022/03/21 00:03:25;;;;;;;54.40;29.97;;;6.70;55.40;;;;;;5036048;28;20269;-92
2022/03/21 00:05:53;;;;;;;48.10;28.47;;;6.70;55.50;;;;;;5035229;28;20211;-92
2022/03/21 00:08:24;;;;;;;52.27;29.53;;;6.70;55.50;;;;;;5034499;28;20211;-92
2022/03/21 00:10:54;;;;;;;51.00;29.23;;;6.60;55.20;;;;;;5037194;28;20204;-93
2022/03/21 00:13:26;;;;;;;56.83;30.33;;;6.60;55.20;;;;;;5044663;28;20323;-91
2022/03/21 00:15:55;;;;;;;49.27;29.27;;;6.60;55.50;;;;;;5045713;28;20201;-93
2022/03/21 00:18:24;;;;;;;46.97;29.37;;;6.60;55.50;;;;;;5042467;28;22103;-93
2022/03/21 00:20:54;;;;;;;54.83;29.97;;;6.50;55.40;;;;;;5046874;28;20206;-92
2022/03/21 00:23:24;;;;;;;48.33;29.50;;;6.50;55.40;;;;;;5046033;28;20213;-95
2022/03/21 00:26:01;;;;;;;54.67;29.33;;;6.50;55.50;;;;;;5042028;28;20227;-93
2022/03/21 00:28:33;;;;;;;48.10;28.53;;;6.50;55.50;;;;;;5035508;28;20202;-95
2022/03/21 00:31:06;;;;;;;51.30;28.70;;;6.40;55.40;;;;;;5030904;28;20229;-95
2022/03/21 00:33:38;;;;;;;49.77;29.10;;;6.40;55.40;;;;;;5036370;28;20223;-95
2022/03/21 00:36:21;;;;;;;49.23;29.93;;;6.40;55.50;;;;;;5033882;28;20202;-95
2022/03/21 00:38:58;;;;;;;50.20;29.50;;;6.40;55.40;;;;;;5033443;28;20291;-95
2022/03/21 00:41:28;;;;;;;41.77;27.53;;;6.40;55.30;;;;;;5041627;28;20277;-95
2022/03/21 00:44:08;;;;;;;43.93;28.13;;;6.30;55.20;;;;;;5044731;28;20219;-95
2022/03/21 00:46:40;;;;;;;47.27;28.17;;;6.30;55.50;;;;;;5034010;28;20936;-95
2022/03/21 00:49:20;;;;;;;53.93;29.87;;;6.30;55.60;;;;;;5029252;28;20654;-94
2022/03/21 00:51:50;;;;;;;47.40;29.70;;;6.30;55.80;;;;;;5041364;28;20613;-94
2022/03/21 00:54:21;;;;;;;54.93;31.03;;;6.30;56.00;;;;;;5052102;28;20914;-95
2022/03/21 00:59:42;;;;;;;49.07;28.43;;;6.20;55.70;;;;;;5047400;28;20224;-95
2022/03/21 01:02:12;;;;;;;46.90;27.90;;;6.20;56.00;;;;;;5045135;28;20204;-95
2022/03/21 01:04:44;;;;;;;45.87;28.43;;;6.20;56.00;;;;;;5039618;28;20216;-94
2022/03/21 01:07:15;;;;;;;49.07;28.40;;;6.10;55.90;;;;;;5038893;28;20201;-94
2022/03/21 01:10:07;;;;;;;48.60;27.53;;;6.10;55.80;;;;;;5047979;28;20200;-96
2022/03/21 01:12:38;;;;;;;53.83;30.40;;;6.10;56.20;;;;;;5031133;28;20201;-95
2022/03/21 01:15:13;;;;;;;46.00;27.30;;;6.10;56.00;;;;;;5041247;28;20209;-95
2022/03/21 01:17:42;;;;;;;47.83;27.90;;;6.10;56.10;;;;;;5042282;28;20325;-95
2022/03/21 01:20:23;;;;;;;52.20;29.70;;;6.10;55.90;;;;;;5036000;28;20218;-95
2022/03/21 01:22:54;;;;;;;40.17;27.50;;;6.10;55.90;;;;;;5040676;28;20212;-95
2022/03/21 01:25:23;;;;;;;44.87;28.27;;;6.10;55.80;;;;;;5052922;28;20247;-95
2022/03/21 01:27:55;;;;;;;57.17;29.17;;;6.10;56.00;;;;;;5041999;28;20231;-94
2022/03/21 01:34:09;;;;;;;42.87;26.77;;;6.00;56.20;;;;;;5057782;28;20185;-95
2022/03/21 01:36:39;;;;;;;49.60;27.00;;;6.00;56.00;;;;;;5049087;28;20201;-95
2022/03/21 01:39:11;;;;;;;55.70;30.00;;;6.00;55.80;;;;;;5049919;28;20214;-94
2022/03/21 01:41:46;;;;;;;42.00;27.07;;;6.00;56.00;;;;;;5048371;28;20225;-95
2022/03/21 01:44:20;;;;;;;47.47;28.57;;;5.90;56.10;;;;;;5047604;28;20238;-94
2022/03/21 01:47:18;;;;;;;49.77;28.17;;;5.90;56.00;;;;;;5043528;28;20644;-95
2022/03/21 01:50:28;;;;;;;49.00;26.90;;;5.90;56.10;;;;;;5040509;28;20199;-95
2022/03/21 01:55:48;;;;;;;40.83;26.47;;;5.90;55.50;;;;;;5050246;28;20203;-93
2022/03/21 01:58:53;;;;;;;50.33;27.90;;;5.80;55.30;;;;;;5037022;28;20204;-92
2022/03/21 02:01:33;;;;;;;41.50;25.40;;;5.80;56.30;;;;;;5046337;28;20228;-94
2022/03/21 02:04:20;;;;;;;42.57;25.90;;;5.80;55.60;;;;;;5049452;28;20231;-94
2022/03/21 02:07:02;;;;;;;40.17;24.50;;;5.80;55.80;;;;;;5052069;28;20199;-94
2022/03/21 02:09:43;;;;;;;41.10;25.80;;;5.70;55.30;;;;;;5054059;28;20251;-94
2022/03/21 02:12:30;;;;;;;42.53;26.60;;;5.70;55.50;;;;;;5058145;28;20208;-94
2022/03/21 02:15:05;;;;;;;48.53;26.93;;;5.70;55.70;;;;;;5048151;28;20207;-95
2022/03/21 02:18:05;;;;;;;43.30;25.37;;;5.70;55.70;;;;;;5055698;28;20793;-94
2022/03/21 02:20:41;;;;;;;37.93;23.47;;;5.70;56.00;;;;;;5050502;28;20211;-92
2022/03/21 02:27:07;;;;;;;43.50;25.10;;;5.60;56.10;;;;;;5051662;28;20219;-94
2022/03/21 02:32:47;;;;;;;42.13;26.30;;;5.60;55.90;;;;;;5059200;28;20583;-94
2022/03/21 02:38:32;;;;;;;46.13;25.47;;;5.50;56.10;;;;;;5038365;28;20214;-94
2022/03/21 02:44:30;;;;;;;46.57;25.83;;;5.50;55.70;;;;;;5045671;28;20238;-92
2022/03/21 02:47:05;;;;;;;42.33;26.77;;;5.40;56.00;;;;;;5046915;28;20711;-94
2022/03/21 02:50:04;;;;;;;42.50;24.23;;;5.40;56.70;;;;;;5063417;28;20187;-94
2022/03/21 02:52:57;;;;;;;43.43;24.70;;;5.40;56.40;;;;;;5060122;28;20820;-94
2022/03/21 02:55:58;;;;;;;40.60;23.93;;;5.30;56.40;;;;;;5050596;28;20684;-95
2022/03/21 02:58:28;;;;;;;42.10;23.73;;;5.30;56.40;;;;;;5046449;28;20227;-93
2022/03/21 03:01:19;;;;;;;45.07;25.47;;;5.30;55.70;;;;;;5048533;28;20294;-94
2022/03/21 03:03:57;;;;;;;36.87;24.37;;;5.30;56.30;;;;;;5052847;28;20230;-92
2022/03/21 03:09:26;;;;;;;44.30;24.10;;;5.20;56.20;;;;;;5040011;28;20213;-94
2022/03/21 03:12:04;;;;;;;48.60;25.60;;;5.20;56.00;;;;;;5036931;28;20258;-95
2022/03/21 03:17:43;;;;;;;41.50;24.27;;;5.20;56.10;;;;;;5049269;28;20256;-94
2022/03/21 03:23:29;;;;;;;40.80;24.53;;;5.20;55.80;;;;;;5058951;28;20241;-95
2022/03/21 03:26:02;;;;;;;42.87;24.57;;;5.10;56.00;;;;;;5051348;28;20220;-93
2022/03/21 03:31:50;;;;;;;43.50;25.30;;;5.10;56.60;;;;;;5053685;28;20219;-94
2022/03/21 03:34:21;;;;;;;43.93;24.77;;;5.10;56.50;;;;;;5046843;28;20207;-95
2022/03/21 03:37:29;;;;;;;36.50;23.53;;;5.10;56.20;;;;;;5053966;28;20203;-94
2022/03/21 03:40:01;;;;;;;35.03;22.37;;;5.10;56.60;;;;;;5048317;28;20208;-94
2022/03/21 03:42:35;;;;;;;38.00;22.73;;;5.10;55.90;;;;;;5045652;28;20259;-95
2022/03/21 03:45:14;;;;;;;45.73;24.60;;;5.10;56.10;;;;;;5046346;28;20238;-94
2022/03/21 03:48:18;;;;;;;40.40;23.63;;;5.00;56.20;;;;;;5067140;28;20246;-94
2022/03/21 03:57:34;;;;;;;44.27;24.00;;;5.00;56.40;;;;;;5047317;28;20207;-94
2022/03/21 04:00:34;;;;;;;36.10;22.23;;;4.90;56.20;;;;;;5065593;28;20209;-94
2022/03/21 04:06:35;;;;;;;35.27;22.00;;;4.90;56.10;;;;;;5057689;28;20209;-95
2022/03/21 04:12:24;;;;;;;43.03;24.73;;;4.90;56.70;;;;;;5168843;22;20727;-96
2022/03/21 04:15:09;;;;;;;38.77;23.03;;;4.80;56.40;;;;;;5084446;28;20202;-94
2022/03/21 04:17:53;;;;;;;39.77;23.53;;;4.80;56.80;;;;;;5089843;28;20724;-95
2022/03/21 04:20:27;;;;;;;35.00;22.07;;;4.80;56.80;;;;;;5088381;28;20202;-95
2022/03/21 04:23:11;;;;;;;36.90;22.30;;;4.80;56.70;;;;;;5090392;28;20357;-94
2022/03/21 04:29:04;;;;;;;34.87;21.07;;;4.70;56.20;;;;;;5091031;28;20216;-94
2022/03/21 04:31:46;;;;;;;43.23;23.43;;;4.70;56.40;;;;;;5076015;28;20210;-94
2022/03/21 04:34:39;;;;;;;41.57;23.60;;;4.70;56.20;;;;;;5083869;28;20218;-95
2022/03/21 04:42:56;;;;;;;34.73;21.73;;;4.70;56.40;;;;;;5065945;28;20249;-95
2022/03/21 04:46:16;;;;;;;43.00;23.67;;;4.70;56.60;;;;;;5098170;28;20226;-95
2022/03/21 04:48:57;;;;;;;33.20;20.70;;;4.70;57.10;;;;;;5097537;28;20182;-96
2022/03/21 04:55:03;;;;;;;37.47;22.17;;;4.60;57.10;;;;;;5070316;22;20223;-96
2022/03/21 04:57:38;;;;;;;37.83;21.63;;;4.60;56.90;;;;;;5055156;28;20198;-95
2022/03/21 05:00:13;;;;;;;39.77;22.03;;;4.60;56.60;;;;;;5080764;28;20213;-95
2022/03/21 05:03:00;;;;;;;36.80;22.23;;;4.60;56.70;;;;;;5077468;28;20267;-95
2022/03/21 05:05:46;;;;;;;39.57;23.13;;;4.50;56.60;;;;;;5071952;28;20253;-95
2022/03/21 05:08:14;;;;;;;33.80;20.90;;;4.50;56.70;;;;;;5059291;28;20261;-94
2022/03/21 05:10:47;;;;;;;38.67;22.80;;;4.50;56.50;;;;;;5043326;28;20267;-95
2022/03/21 05:16:06;;;;;;;36.70;21.93;;;4.50;56.50;;;;;;5054672;28;20240;-95
2022/03/21 05:19:35;;;;;;;35.87;21.63;;;4.50;56.60;;;;;;5058651;28;20219;-94
2022/03/21 05:31:32;;;;;;;37.27;20.10;;;4.50;56.50;;;;;;5044936;28;20209;-95
2022/03/21 05:36:46;;;;;;;34.50;20.93;;;4.40;56.30;;;;;;5055678;28;20209;-95
2022/03/21 05:39:22;;;;;;;38.03;22.40;;;4.50;56.30;;;;;;5052902;28;20260;-96
2022/03/21 05:41:52;;;;;;;38.17;21.83;;;4.40;56.60;;;;;;5062749;28;20226;-96
2022/03/21 05:44:20;;;;;;;36.43;21.43;;;4.40;56.80;;;;;;5065222;28;20215;-96
2022/03/21 05:46:48;;;;;;;36.97;20.80;;;4.40;57.10;;;;;;5068075;28;20213;-94
2022/03/21 05:49:16;;;;;;;41.80;22.70;;;4.40;57.00;;;;;;5054372;28;20226;-95
2022/03/21 05:51:52;;;;;;;35.87;21.97;;;4.40;57.00;;;;;;5054635;28;20207;-95
2022/03/21 05:54:22;;;;;;;41.17;22.10;;;4.40;57.30;;;;;;5073390;28;20214;-96
2022/03/21 05:56:50;;;;;;;39.23;21.27;;;4.40;57.20;;;;;;5074420;28;20206;-95
2022/03/21 06:02:16;;;;;;;38.87;21.60;;;4.30;57.30;;;;;;5070114;28;20280;-94
2022/03/21 06:04:45;;;;;;;33.70;21.80;;;4.40;57.00;;;;;;5054654;28;20206;-94
2022/03/21 06:07:17;;;;;;;36.50;21.60;;;4.30;57.00;;;;;;5054749;28;20197;-94
2022/03/21 06:09:54;;;;;;;40.63;23.13;;;4.30;57.20;;;;;;5055713;28;20200;-94
2022/03/21 06:12:31;;;;;;;37.73;20.87;;;4.30;57.60;;;;;;5069352;28;21001;-93
2022/03/21 06:15:05;;;;;;;38.93;22.63;;;4.30;57.70;;;;;;5050452;28;20216;-95
2022/03/21 06:17:38;;;;;;;41.87;22.83;;;4.30;57.40;;;;;;5037505;28;20272;-94
2022/03/21 06:20:10;;;;;;;36.10;20.80;;;4.30;57.70;;;;;;5054989;28;20290;-94
2022/03/21 06:22:48;;;;;;;42.13;21.70;;;4.20;57.30;;;;;;5062556;28;20233;-94
2022/03/21 06:25:15;;;;;;;41.00;21.97;;;4.20;57.50;;;;;;5050183;28;20285;-94
2022/03/21 06:27:48;;;;;;;42.73;23.83;;;4.20;57.60;;;;;;5035705;28;20652;-94
2022/03/21 06:30:19;;;;;;;40.67;22.37;;;4.20;58.00;;;;;;5056266;28;20208;-93
2022/03/21 06:32:55;;;;;;;42.07;23.70;;;4.30;58.20;;;;;;5056381;28;20201;-93
2022/03/21 06:35:25;;;;;;;41.17;22.03;;;4.30;58.30;;;;;;5047032;28;20202;-94
2022/03/21 06:37:52;;;;;;;39.83;21.93;;;4.30;58.40;;;;;;5037913;28;20202;-94
2022/03/21 06:40:48;;;;;;;37.23;22.43;;;4.30;58.40;;;;;;5051621;28;20216;-94
2022/03/21 06:43:28;;;;;;;40.70;21.73;;;4.30;58.70;;;;;;5057062;28;20203;-94
2022/03/21 06:45:58;;;;;;;43.50;23.10;;;4.30;58.20;;;;;;5053983;28;20384;-93
2022/03/21 06:48:33;;;;;;;40.73;21.53;;;4.30;57.90;;;;;;5066469;28;20189;-93
2022/03/21 06:51:03;;;;;;;38.77;21.23;;;4.40;58.00;;;;;;5047588;28;20191;-94
2022/03/21 06:53:30;;;;;;;40.23;22.00;;;4.40;58.00;;;;;;5064061;28;20212;-93
2022/03/21 06:56:00;;;;;;;47.30;25.70;;;4.40;57.90;;;;;;5047996;28;20225;-95
2022/03/21 06:58:40;;;;;;;48.33;24.43;;;4.40;58.20;;;;;;5047809;28;20224;-94
2022/03/21 07:01:13;;;;;;;39.90;21.97;;;4.50;58.60;;;;;;5054868;28;20258;-94
2022/03/21 07:03:41;;;;;;;42.10;23.97;;;4.50;58.20;;;;;;5046582;28;20197;-94
2022/03/21 07:06:11;;;;;;;44.23;24.03;;;4.60;58.10;;;;;;5054785;28;20302;-94
2022/03/21 07:08:41;;;;;;;42.07;22.90;;;4.60;58.30;;;;;;5047505;28;20227;-94
2022/03/21 07:11:12;;;;;;;45.97;23.33;;;4.70;58.20;;;;;;5047005;28;20205;-94
2022/03/21 07:13:47;;;;;;;42.43;23.50;;;4.70;58.00;;;;;;5051010;28;20265;-94
2022/03/21 07:16:23;;;;;;;45.43;24.70;;;4.80;58.10;;;;;;5051395;28;20214;-94
2022/03/21 07:18:56;;;;;;;36.33;21.73;;;4.90;58.60;;;;;;5044717;28;20800;-94
2022/03/21 07:21:25;;;;;;;42.23;22.27;;;4.90;58.90;;;;;;5050058;28;20948;-93
2022/03/21 07:23:56;;;;;;;47.63;25.53;;;4.90;58.90;;;;;;5044466;28;20218;-93
2022/03/21 07:26:25;;;;;;;42.33;22.13;;;5.00;59.00;;;;;;5045437;28;20229;-93
2022/03/21 07:29:01;;;;;;;43.10;24.33;;;5.10;59.00;;;;;;5038409;28;20651;-94
2022/03/21 07:31:29;;;;;;;40.63;23.23;;;5.10;59.50;;;;;;5043530;28;20213;-93
2022/03/21 07:33:59;;;;;;;45.33;23.50;;;5.20;59.50;;;;;;5047227;28;20218;-93
2022/03/21 07:36:29;;;;;;;47.50;23.63;;;5.30;59.60;;;;;;5035528;28;20200;-94
2022/03/21 07:38:58;;;;;;;38.37;21.93;;;5.40;59.80;;;;;;5053747;28;20291;-93
2022/03/21 07:41:30;;;;;;;45.90;23.67;;;5.50;59.90;;;;;;5047912;28;20354;-93
2022/03/21 07:44:04;;;;;;;40.07;22.73;;;5.60;60.00;;;;;;5050520;28;20203;-93
2022/03/21 07:49:19;;;;;;;42.07;21.60;;;5.80;60.30;;;;;;5049905;28;20233;-94
2022/03/21 07:51:48;;;;;;;39.50;21.37;;;5.90;60.40;;;;;;5050779;28;20210;-94
2022/03/21 07:54:16;;;;;;;44.90;23.80;;;6.00;60.50;;;;;;5051146;28;20670;-93
2022/03/21 07:56:43;;;;;;;41.73;21.87;;;6.10;60.80;;;;;;5050692;28;20196;-94
2022/03/21 07:59:14;;;;;;;38.87;21.73;;;6.20;61.80;;;;;;5052232;28;20311;-93
2022/03/21 08:01:42;;;;;;;45.77;23.90;;;6.40;61.60;;;;;;5046899;28;20337;-93
2022/03/21 08:04:10;;;;;;;33.00;20.20;;;6.50;61.20;;;;;;5057203;28;20202;-94
2022/03/21 08:06:37;;;;;;;43.47;21.93;;;6.60;61.20;;;;;;5059619;28;20270;-94
2022/03/21 08:09:07;;;;;;;39.87;21.60;;;6.70;61.20;;;;;;5058547;28;20289;-94
2022/03/21 08:11:35;;;;;;;35.30;21.87;;;6.80;61.30;;;;;;5057604;28;20200;-93
2022/03/21 08:14:02;;;;;;;40.23;22.00;;;7.00;61.50;;;;;;5053699;28;20824;-95
2022/03/21 08:16:31;;;;;;;42.63;23.03;;;7.10;61.30;;;;;;5052419;28;20207;-93
2022/03/21 08:19:02;;;;;;;45.23;23.40;;;7.20;61.50;;;;;;5053619;28;20251;-93
2022/03/21 08:21:29;;;;;;;40.73;22.03;;;7.40;61.40;;;;;;5057441;28;20200;-94
2022/03/21 08:24:03;;;;;;;37.10;22.43;;;7.50;61.40;;;;;;5059340;28;20255;-94
2022/03/21 08:26:35;;;;;;;37.57;23.03;;;7.70;62.20;;;;;;5064668;28;20225;-93
2022/03/21 08:29:02;;;;;;;38.10;22.47;;;7.80;62.30;;;;;;5057300;28;20276;-93
2022/03/21 08:31:35;;;;;;;39.00;21.33;;;7.90;62.20;;;;;;5056728;28;20223;-93
2022/03/21 08:34:08;;;;;;;40.60;22.17;;;8.10;62.10;;;;;;5060141;28;20339;-90
2022/03/21 08:36:35;;;;;;;39.73;21.10;;;8.20;61.80;;;;;;5064213;28;20909;-90
2022/03/21 08:39:03;;;;;;;42.17;21.93;;;8.40;61.90;;;;;;5060963;28;20286;-90
2022/03/21 08:41:31;;;;;;;37.67;20.90;;;8.50;62.10;;;;;;5055692;28;20204;-91
2022/03/21 08:43:58;;;;;;;36.27;22.10;;;8.70;62.10;;;;;;5051431;28;20262;-92
2022/03/21 08:46:26;;;;;;;39.53;20.87;;;8.90;61.90;;;;;;5054391;28;20287;-91
2022/03/21 08:51:58;;;;;;;36.43;22.20;;;9.20;62.30;;;;;;4992495;28;20220;-90
2022/03/21 08:54:25;;;;;;;31.50;19.57;;;9.50;62.20;;;;;;4991679;28;20297;-91
2022/03/21 08:57:04;;;;;;;36.30;21.43;;;9.80;62.50;;;;;;4991901;28;20322;-91
2022/03/21 08:59:33;;;;;;;35.90;20.97;;;10.00;61.20;;;;;;4991487;28;20610;-91
2022/03/21 09:02:00;;;;;;;33.97;20.67;;;10.30;60.90;;;;;;4992571;28;20192;-90
2022/03/21 09:04:28;;;;;;;34.77;21.17;;;10.70;61.50;;;;;;5047072;28;20302;-87
2022/03/21 09:06:55;;;;;;;29.43;19.27;;;11.00;61.30;;;;;;5049980;28;20212;-91
2022/03/21 09:09:22;;;;;;;38.87;21.63;;;11.40;61.20;;;;;;5052918;28;20230;-91
2022/03/21 09:11:51;;;;;;;32.73;19.33;;;11.70;60.80;;;;;;5061013;28;20307;-90
2022/03/21 09:14:18;;;;;;;33.03;20.57;;;12.10;60.00;;;;;;5050580;28;20205;-90
2022/03/21 09:16:45;;;;;;;34.43;20.07;;;12.40;60.20;;;;;;5051559;28;20258;-88
2022/03/21 09:19:13;;;;;;;34.87;19.87;;;12.70;59.10;;;;;;5050580;28;20243;-89
2022/03/21 09:21:41;;;;;;;33.70;20.57;;;13.10;58.80;;;;;;5051302;28;20283;-89
2022/03/21 09:24:10;;;;;;;33.07;19.90;;;13.40;58.60;;;;;;5050302;28;20264;-89
2022/03/21 09:26:37;;;;;;;28.97;19.23;;;13.80;58.70;;;;;;5054933;28;20378;-90
2022/03/21 09:29:04;;;;;;;33.23;18.60;;;14.10;58.30;;;;;;5038694;28;20275;-89
2022/03/21 09:31:32;;;;;;;29.37;16.93;;;14.40;58.00;;;;;;5031348;28;20209;-89
2022/03/21 09:33:59;;;;;;;28.87;17.73;;;14.70;58.00;;;;;;5032537;28;20229;-90
2022/03/21 09:36:26;;;;;;;29.70;18.13;;;15.00;57.80;;;;;;5037348;28;20223;-89
2022/03/21 09:38:55;;;;;;;29.77;17.93;;;15.40;57.10;;;;;;5051377;28;20295;-89
2022/03/21 09:41:27;;;;;;;26.60;16.53;;;15.70;56.70;;;;;;5050275;28;20712;-89
2022/03/21 09:43:55;;;;;;;25.97;16.47;;;15.90;56.70;;;;;;5050141;28;20278;-90
2022/03/21 09:46:23;;;;;;;30.17;18.50;;;16.20;56.60;;;;;;5051668;28;20257;-88
2022/03/21 09:48:53;;;;;;;26.30;15.63;;;16.50;56.00;;;;;;5051278;28;20208;-89
2022/03/21 09:51:22;;;;;;;26.37;16.67;;;16.80;55.60;;;;;;5050178;28;20215;-88
2022/03/21 09:53:50;;;;;;;26.67;17.33;;;17.00;54.80;;;;;;5050112;28;20804;-89
2022/03/21 09:56:19;;;;;;;25.60;16.23;;;17.30;54.80;;;;;;5049299;28;20211;-89
2022/03/21 09:58:47;;;;;;;26.97;15.67;;;17.50;54.00;;;;;;5050413;28;20319;-88
2022/03/21 10:01:15;;;;;;;25.77;16.47;;;17.70;54.00;;;;;;5049774;28;20207;-89
2022/03/21 10:03:43;;;;;;;26.93;17.57;;;17.90;53.50;;;;;;5048526;28;20200;-89
2022/03/21 10:06:27;;;;;;;33.87;19.60;;;18.20;53.20;;;;;;5040833;28;20204;-88
2022/03/21 10:09:08;;;;;;;28.43;17.33;;;18.30;52.00;;;;;;5042085;28;20203;-91
2022/03/21 10:11:37;;;;;;;25.37;17.53;;;18.60;52.30;;;;;;5048561;28;20196;-90
2022/03/21 10:14:32;;;;;;;30.77;18.97;;;18.70;52.70;;;;;;5042882;28;20211;-90
2022/03/21 10:17:02;;;;;;;25.53;17.77;;;19.00;51.60;;;;;;5041476;28;20577;-89
2022/03/21 10:19:43;;;;;;;35.17;19.10;;;19.10;51.90;;;;;;5047450;28;20564;-89
2022/03/21 10:22:12;;;;;;;30.27;18.73;;;19.30;51.00;;;;;;5041441;28;20228;-89
2022/03/21 10:24:40;;;;;;;36.70;20.00;;;19.40;51.60;;;;;;5039534;28;20779;-90
2022/03/21 10:27:29;;;;;;;32.43;19.23;;;19.60;51.70;;;;;;5038393;28;20278;-89
2022/03/21 10:30:00;;;;;;;25.90;16.47;;;19.70;49.80;;;;;;5053253;28;20769;-92
2022/03/21 10:32:39;;;;;;;26.37;17.23;;;19.90;51.10;;;;;;5048330;28;20203;-91
2022/03/21 10:35:12;;;;;;;28.47;17.47;;;20.00;50.20;;;;;;5043034;28;20210;-93
2022/03/21 10:37:46;;;;;;;27.70;16.10;;;20.20;50.30;;;;;;5042646;28;20290;-93
2022/03/21 10:40:27;;;;;;;27.97;17.20;;;20.40;49.60;;;;;;5048429;28;20254;-95
2022/03/21 10:42:59;;;;;;;32.13;19.10;;;20.50;49.00;;;;;;5041798;28;20211;-90
2022/03/21 10:45:39;;;;;;;27.23;16.27;;;20.70;49.10;;;;;;5043505;28;20693;-91
2022/03/21 10:48:08;;;;;;;32.07;17.83;;;20.80;49.30;;;;;;5041078;28;20208;-90
2022/03/21 10:50:41;;;;;;;26.10;16.50;;;20.90;49.00;;;;;;5044439;28;20288;-89
2022/03/21 10:53:10;;;;;;;34.00;17.70;;;21.00;48.20;;;;;;5047805;28;20207;-89
2022/03/21 10:55:41;;;;;;;21.80;13.93;;;21.20;48.40;;;;;;5049374;28;20924;-93
2022/03/21 10:58:12;;;;;;;20.43;13.27;;;21.20;47.60;;;;;;5052251;28;20235;-95
2022/03/21 11:00:39;;;;;;;21.70;13.87;;;21.30;47.50;;;;;;5044704;28;20307;-94
2022/03/21 11:03:15;;;;;;;19.37;13.87;;;21.40;47.80;;;;;;5053098;28;20191;-96
2022/03/21 11:05:50;;;;;;;19.00;13.57;;;21.50;46.80;;;;;;5033483;28;20189;-93
2022/03/21 11:08:20;;;;;;;19.00;12.83;;;21.70;46.90;;;;;;5034688;28;20217;-94
2022/03/21 11:10:47;;;;;;;24.80;13.53;;;21.80;46.80;;;;;;5049729;28;20279;-90
2022/03/21 11:13:16;;;;;;;20.93;13.90;;;21.90;47.30;;;;;;5049405;28;20370;-91
2022/03/21 11:15:43;;;;;;;22.90;14.07;;;22.00;47.00;;;;;;5049384;28;20204;-95
2022/03/21 11:18:10;;;;;;;23.13;14.67;;;22.00;47.20;;;;;;5050585;28;20204;-92
2022/03/21 11:20:38;;;;;;;22.00;13.27;;;22.20;46.80;;;;;;5050536;28;20287;-92
2022/03/21 11:23:05;;;;;;;21.23;13.47;;;22.20;46.10;;;;;;5048913;28;20333;-91
2022/03/21 11:25:34;;;;;;;25.43;15.43;;;22.30;46.30;;;;;;5048613;28;20299;-90
2022/03/21 11:28:42;;;;;;;20.50;13.73;;;22.40;46.10;;;;;;5044881;28;20779;-90
2022/03/21 11:31:51;;;;;;;21.63;14.13;;;22.50;45.90;;;;;;5040299;28;20347;-90
2022/03/21 11:34:39;;;;;;;18.87;12.97;;;22.60;45.50;;;;;;5044801;28;20204;-91
2022/03/21 11:37:06;;;;;;;17.90;12.53;;;22.70;46.10;;;;;;5048635;28;20290;-96
2022/03/21 11:39:33;;;;;;;18.00;13.17;;;22.80;46.30;;;;;;5048638;28;20756;-90
2022/03/21 11:42:03;;;;;;;21.13;13.83;;;23.00;46.20;;;;;;5049043;28;20197;-89
2022/03/21 11:44:32;;;;;;;17.70;12.30;;;23.10;46.10;;;;;;5037338;28;20200;-90
2022/03/21 11:47:24;;;;;;;26.27;16.47;;;23.10;46.00;;;;;;5035399;28;20639;-90
2022/03/21 11:49:55;;;;;;;20.80;13.43;;;23.30;45.00;;;;;;5044031;28;20200;-92
2022/03/21 11:52:23;;;;;;;16.23;12.43;;;23.40;45.90;;;;;;5038233;28;20709;-88
2022/03/21 11:54:50;;;;;;;18.90;13.80;;;23.50;45.90;;;;;;5029208;28;20213;-91
2022/03/21 11:57:28;;;;;;;23.50;15.27;;;23.60;45.50;;;;;;5029149;28;20240;-88
2022/03/21 12:00:15;;;;;;;18.20;13.27;;;23.70;44.70;;;;;;5036324;28;20196;-91
2022/03/21 12:02:57;;;;;;;20.53;13.47;;;23.80;44.40;;;;;;5041401;28;20204;-92
2022/03/21 12:05:50;;;;;;;18.40;13.27;;;23.90;44.30;;;;;;5040954;28;20295;-92
2022/03/21 12:08:46;;;;;;;18.87;13.93;;;24.00;44.00;;;;;;5042329;28;20243;-90
2022/03/21 12:11:50;;;;;;;19.63;13.50;;;24.10;43.80;;;;;;5024663;28;20211;-91
2022/03/21 12:14:28;;;;;;;21.43;14.27;;;24.20;44.00;;;;;;5036449;28;20216;-91
2022/03/21 12:17:28;;;;;;;21.10;14.20;;;24.40;44.10;;;;;;5034879;28;20199;-89
2022/03/21 12:20:04;;;;;;;22.23;14.10;;;24.40;43.80;;;;;;5038046;28;20714;-90
2022/03/21 12:22:39;;;;;;;20.10;14.93;;;24.50;44.20;;;;;;5028880;28;20235;-90
2022/03/21 12:25:09;;;;;;;22.50;14.10;;;24.60;44.20;;;;;;5028457;28;20307;-90
2022/03/21 12:27:40;;;;;;;20.40;13.93;;;24.70;44.80;;;;;;5047091;28;20314;-93
2022/03/21 12:30:36;;;;;;;22.67;16.33;;;24.70;44.60;;;;;;5047515;28;20200;-93
2022/03/21 12:33:29;;;;;;;21.50;15.13;;;24.80;43.00;;;;;;5040881;28;20210;-93
2022/03/21 12:35:58;;;;;;;22.97;14.50;;;24.90;43.00;;;;;;5041229;28;20294;-96
2022/03/21 12:38:28;;;;;;;20.27;13.93;;;24.90;44.20;;;;;;5044934;28;20235;-93
2022/03/21 12:40:59;;;;;;;21.97;13.23;;;25.00;43.90;;;;;;5041099;28;20216;-92
2022/03/21 12:43:30;;;;;;;18.83;14.43;;;25.00;43.80;;;;;;5048488;28;20674;-91
2022/03/21 12:46:11;;;;;;;15.97;12.43;;;25.10;43.70;;;;;;5050435;28;20721;-93
2022/03/21 12:48:43;;;;;;;17.87;13.43;;;25.20;44.10;;;;;;5052263;28;20251;-91
2022/03/21 12:51:13;;;;;;;17.63;13.63;;;25.30;43.40;;;;;;5039780;28;20291;-92
2022/03/21 12:53:44;;;;;;;21.93;13.97;;;25.40;43.50;;;;;;5047461;28;20284;-91
2022/03/21 12:56:12;;;;;;;20.10;14.20;;;25.50;43.60;;;;;;5049244;28;20215;-94
2022/03/21 12:58:45;;;;;;;19.47;13.83;;;25.60;43.50;;;;;;5043801;28;20657;-92
2022/03/21 13:01:13;;;;;;;23.70;14.50;;;25.70;42.90;;;;;;5037153;28;20214;-90
2022/03/21 13:03:42;;;;;;;24.27;14.57;;;25.80;43.20;;;;;;5044600;28;20321;-91
2022/03/21 13:11:44;;;;;;;19.13;13.17;;;25.90;42.30;;;;;;5052146;28;20652;-91
2022/03/21 13:14:15;;;;;;;18.17;12.73;;;25.90;42.10;;;;;;5052320;28;20239;-94
2022/03/21 13:16:50;;;;;;;17.77;13.43;;;25.90;42.00;;;;;;5055606;28;20250;-90
2022/03/21 13:19:22;;;;;;;17.17;13.53;;;25.90;42.00;;;;;;5057971;28;20322;-93
2022/03/21 13:21:52;;;;;;;17.67;13.20;;;26.00;42.00;;;;;;5036892;28;20224;-94
2022/03/21 13:24:38;;;;;;;22.97;14.07;;;26.00;42.00;;;;;;5050031;28;20211;-91
2022/03/21 13:27:07;;;;;;;17.40;12.97;;;26.00;41.30;;;;;;5034976;28;20631;-94
2022/03/21 13:29:50;;;;;;;16.27;12.73;;;26.10;42.70;;;;;;5039248;28;20185;-91
2022/03/21 13:32:20;;;;;;;16.60;12.03;;;26.10;42.00;;;;;;5051290;28;20655;-96
2022/03/21 13:34:52;;;;;;;18.60;13.40;;;26.20;42.80;;;;;;5058199;28;20207;-93
2022/03/21 13:37:21;;;;;;;24.97;15.07;;;26.30;41.30;;;;;;5053365;28;20271;-93
2022/03/21 13:39:58;;;;;;;18.70;11.43;;;26.30;41.90;;;;;;5056810;28;20228;-94
2022/03/21 13:42:26;;;;;;;16.40;11.40;;;26.30;40.70;;;;;;5056482;28;20203;-93
2022/03/21 13:44:55;;;;;;;20.60;14.13;;;26.30;41.20;;;;;;5048456;28;20292;-94
2022/03/21 13:47:22;;;;;;;19.80;12.97;;;26.30;41.10;;;;;;5051236;28;20196;-92
2022/03/21 13:49:52;;;;;;;20.43;13.57;;;26.30;41.40;;;;;;5051628;28;20192;-93
2022/03/21 13:52:43;;;;;;;16.10;12.20;;;26.20;41.90;;;;;;5050609;28;20192;-92
2022/03/21 13:55:15;;;;;;;18.93;13.13;;;26.20;41.00;;;;;;5050646;28;20261;-92
2022/03/21 13:57:52;;;;;;;17.60;12.77;;;26.30;41.70;;;;;;5052627;28;20208;-90
2022/03/21 14:00:27;;;;;;;16.77;12.23;;;26.30;41.20;;;;;;5049671;28;20385;-91
2022/03/21 14:02:55;;;;;;;20.27;12.50;;;26.40;41.20;;;;;;5051560;28;20550;-90
2022/03/21 14:05:31;;;;;;;18.23;12.17;;;26.40;41.50;;;;;;5053165;28;20642;-92
2022/03/21 14:08:13;;;;;;;15.67;12.00;;;26.50;41.20;;;;;;5058234;28;20220;-91
2022/03/21 14:10:41;;;;;;;24.23;13.10;;;26.60;41.20;;;;;;5055732;28;20274;-91
2022/03/21 14:13:15;;;;;;;16.63;11.83;;;26.60;41.50;;;;;;5056585;28;20208;-92
2022/03/21 14:15:47;;;;;;;15.50;11.27;;;26.60;41.30;;;;;;5045546;28;20231;-91
2022/03/21 14:18:19;;;;;;;17.33;12.20;;;26.70;41.40;;;;;;5040797;28;20189;-93
2022/03/21 14:20:57;;;;;;;17.27;12.10;;;26.80;41.10;;;;;;5049537;28;20181;-90
2022/03/21 14:23:27;;;;;;;15.37;12.07;;;26.80;40.60;;;;;;5062174;28;20200;-92
2022/03/21 14:28:51;;;;;;;20.97;13.23;;;26.80;40.50;;;;;;5061637;28;20894;-91
2022/03/21 14:31:22;;;;;;;22.90;14.17;;;26.90;40.20;;;;;;5060258;28;20263;-92
2022/03/21 14:33:49;;;;;;;17.30;12.53;;;26.80;40.40;;;;;;5060378;28;20231;-92
2022/03/21 14:36:17;;;;;;;18.73;12.20;;;26.80;40.30;;;;;;5051039;28;20208;-91
2022/03/21 14:38:45;;;;;;;20.43;13.10;;;26.80;40.30;;;;;;5048851;28;20287;-91
2022/03/21 14:41:14;;;;;;;20.67;12.67;;;26.80;40.20;;;;;;5043141;28;20295;-91
2022/03/21 14:43:42;;;;;;;17.00;13.00;;;26.80;40.10;;;;;;5041862;28;20202;-91